createdAt,value
2018-12-12T00:01:41.234Z,100049.61
2018-12-12T00:04:10.396Z,100045.11
2018-12-12T00:06:38.600Z,100055.56
2018-12-12T00:09:07.393Z,100056.00
2018-12-12T00:11:35.792Z,100049.41
2018-12-12T00:14:04.059Z,100039.64
2018-12-12T00:16:32.219Z,100036.95
2018-12-12T00:19:00.595Z,100035.73
2018-12-12T00:21:28.770Z,100039.88
2018-12-12T00:23:57.632Z,100032.42
2018-12-12T00:26:25.829Z,100035.00
2018-12-12T00:28:54.065Z,100030.99
2018-12-12T00:31:22.277Z,100028.72
2018-12-12T00:33:50.551Z,100026.82
2018-12-12T00:36:19.314Z,100023.34
2018-12-12T00:38:47.514Z,100033.69
2018-12-12T00:41:15.691Z,100028.47
2018-12-12T00:43:43.873Z,100021.49
2018-12-12T00:46:12.237Z,100022.70
2018-12-12T00:48:41.291Z,100013.22
2018-12-12T00:51:09.503Z,100002.80
2018-12-12T00:53:37.682Z,100004.30
2018-12-12T00:56:05.869Z,99994.95
2018-12-12T00:58:34.171Z,100005.23
2018-12-12T01:01:02.882Z,100001.62
2018-12-12T01:03:31.099Z,100008.94
2018-12-12T01:05:59.254Z,100012.92
2018-12-12T01:11:07.302Z,100015.77
2018-12-12T01:13:35.512Z,100024.48
2018-12-12T01:16:03.743Z,100016.64
2018-12-12T01:18:31.901Z,100027.13
2018-12-12T01:21:01.167Z,100019.66
2018-12-12T01:23:29.318Z,100023.27
2018-12-12T01:25:57.549Z,100020.22
2018-12-12T01:28:26.195Z,100027.22
2018-12-12T01:30:54.411Z,100025.45
2018-12-12T01:33:22.695Z,100021.45
2018-12-12T01:35:51.257Z,100018.95
2018-12-12T01:38:19.448Z,100016.05
2018-12-12T01:40:47.617Z,100021.06
2018-12-12T01:43:15.842Z,100024.55
2018-12-12T01:45:44.056Z,100017.65
2018-12-12T01:48:12.440Z,100024.22
2018-12-12T01:50:40.688Z,100019.31
2018-12-12T01:53:08.824Z,100025.23
2018-12-12T01:55:37.022Z,100020.52
2018-12-12T01:58:05.200Z,100020.66
2018-12-12T02:00:33.370Z,100021.17
2018-12-12T02:03:01.603Z,100015.21
2018-12-12T02:05:29.976Z,100018.44
2018-12-12T02:07:58.623Z,100014.80
2018-12-12T02:10:26.817Z,100016.13
2018-12-12T02:13:06.336Z,100018.61
2018-12-12T02:15:34.547Z,100020.78
2018-12-12T02:18:02.705Z,100020.91
2018-12-12T02:20:34.022Z,100024.85
2018-12-12T02:23:02.246Z,100019.31
2018-12-12T02:25:30.509Z,100021.48
2018-12-12T02:27:59.025Z,100022.45
2018-12-12T02:30:27.169Z,100023.83
2018-12-12T02:32:55.783Z,100024.35
2018-12-12T02:35:24.022Z,100026.14
2018-12-12T02:37:52.295Z,100026.20
2018-12-12T02:40:20.571Z,100026.69
2018-12-12T02:42:48.837Z,100030.11
2018-12-12T02:45:17.179Z,100025.92
2018-12-12T02:47:45.400Z,100027.82
2018-12-12T02:50:13.670Z,100019.31
2018-12-12T02:52:42.698Z,100031.46
2018-12-12T02:55:11.034Z,100025.42
2018-12-12T02:57:40.629Z,100030.73
2018-12-12T03:00:09.798Z,100027.30
2018-12-12T03:16:51.884Z,100012.73
2018-12-12T03:19:20.028Z,100015.36
2018-12-12T03:21:50.024Z,100018.00
2018-12-12T03:24:18.463Z,100021.98
2018-12-12T03:26:46.672Z,100018.55
2018-12-12T03:29:14.843Z,100016.51
2018-12-12T03:31:43.000Z,100020.83
2018-12-12T03:34:11.307Z,100019.93
2018-12-12T03:36:39.583Z,100016.87
2018-12-12T03:39:07.943Z,100006.09
2018-12-12T03:41:36.127Z,100005.16
2018-12-12T03:44:04.291Z,99999.48
2018-12-12T03:46:32.575Z,100001.70
2018-12-12T03:49:01.135Z,100003.88
2018-12-12T03:51:29.287Z,100009.97
2018-12-12T03:53:57.446Z,100007.81
2018-12-12T03:56:25.729Z,100000.00
2018-12-12T03:58:53.869Z,99996.55
2018-12-12T04:01:22.004Z,99993.87
2018-12-12T04:03:50.184Z,99990.14
2018-12-12T04:06:18.379Z,99988.80
2018-12-12T04:08:46.618Z,99993.83
2018-12-12T04:11:14.766Z,99994.76
2018-12-12T04:13:43.266Z,99992.48
2018-12-12T04:16:11.972Z,99996.61
2018-12-12T04:18:40.166Z,99986.94
2018-12-12T04:21:08.438Z,99996.05
2018-12-12T04:23:36.615Z,100006.67
2018-12-12T04:26:04.789Z,100004.22
2018-12-12T04:28:33.046Z,99996.80
2018-12-12T04:31:01.435Z,100006.69
2018-12-12T04:33:29.817Z,100008.84
2018-12-12T04:35:58.031Z,100000.79
2018-12-12T04:38:26.233Z,99996.68
2018-12-12T04:40:54.435Z,100002.45
2018-12-12T04:43:22.595Z,99999.77
2018-12-12T04:45:50.760Z,99999.85
2018-12-12T04:48:19.062Z,100004.36
2018-12-12T04:50:47.447Z,100010.16
2018-12-12T04:53:15.710Z,100013.28
2018-12-12T04:55:43.893Z,100015.89
2018-12-12T04:58:12.176Z,100022.11
2018-12-12T05:00:40.330Z,100017.10
2018-12-12T05:03:08.532Z,100023.98
2018-12-12T05:05:36.698Z,100024.86
2018-12-12T05:08:04.948Z,100017.02
2018-12-12T05:10:33.128Z,100019.69
2018-12-12T05:13:01.410Z,100022.98
2018-12-12T05:15:29.591Z,100021.27
2018-12-12T05:17:57.865Z,100011.30
2018-12-12T05:20:26.080Z,100015.08
2018-12-12T05:22:54.602Z,100021.20
2018-12-12T05:25:22.899Z,100017.37
2018-12-12T05:27:52.455Z,100012.14
2018-12-12T05:30:20.662Z,100017.69
2018-12-12T05:32:48.833Z,100020.20
2018-12-12T05:35:17.018Z,100021.73
2018-12-12T05:37:49.865Z,100021.17
2018-12-12T05:40:15.601Z,100012.00
2018-12-12T05:42:44.375Z,100020.57
2018-12-12T05:45:12.575Z,100023.81
2018-12-12T05:47:40.819Z,100026.91
2018-12-12T05:50:09.175Z,100030.98
2018-12-12T05:52:37.395Z,100030.16
2018-12-12T05:55:06.193Z,100022.77
2018-12-12T05:57:34.473Z,100024.91
2018-12-12T06:00:02.852Z,100027.58
2018-12-12T06:02:34.275Z,100026.03
2018-12-12T06:05:02.427Z,100026.89
2018-12-12T06:07:30.571Z,100021.79
2018-12-12T06:09:58.755Z,100030.93
2018-12-12T06:12:26.903Z,100037.92
2018-12-12T06:14:55.063Z,100031.09
2018-12-12T06:17:23.607Z,100033.70
2018-12-12T06:19:52.088Z,100027.66
2018-12-12T06:22:20.421Z,100031.75
2018-12-12T06:24:48.608Z,100035.36
2018-12-12T06:27:16.764Z,100036.26
2018-12-12T06:29:44.938Z,100041.90
2018-12-12T06:32:13.466Z,100034.60
2018-12-12T06:34:41.668Z,100048.12
2018-12-12T06:37:09.817Z,100056.81
2018-12-12T06:39:38.295Z,100057.69
2018-12-12T06:42:06.547Z,100056.34
2018-12-12T06:44:34.692Z,100048.50
2018-12-12T06:47:02.966Z,100048.95
2018-12-12T06:49:31.213Z,100053.27
2018-12-12T06:51:59.380Z,100049.34
2018-12-12T06:54:27.545Z,100054.55
2018-12-12T06:56:55.852Z,100052.41
2018-12-12T06:59:24.013Z,100056.83
2018-12-12T07:01:52.645Z,100057.73
2018-12-12T07:04:20.799Z,100058.64
2018-12-12T07:06:48.946Z,100061.70
2018-12-12T07:09:17.224Z,100066.88
2018-12-12T07:11:45.444Z,100069.41
2018-12-12T07:14:17.111Z,100071.09
2018-12-12T07:16:45.260Z,100077.99
2018-12-12T07:19:13.464Z,100073.19
2018-12-12T07:21:41.730Z,100084.45
2018-12-12T07:24:09.921Z,100074.37
2018-12-12T07:26:38.175Z,100079.59
2018-12-12T07:29:06.322Z,100083.02
2018-12-12T07:31:34.559Z,100084.66
2018-12-12T07:34:04.772Z,100085.79
2018-12-12T07:36:32.913Z,100081.34
2018-12-12T07:39:01.138Z,100090.78
2018-12-12T07:41:30.106Z,100090.31
2018-12-12T07:43:58.303Z,100091.92
2018-12-12T07:46:26.864Z,100100.59
2018-12-12T07:48:55.225Z,100098.81
2018-12-12T07:51:23.447Z,100095.25
2018-12-12T07:53:51.867Z,100092.13
2018-12-12T07:56:20.464Z,100094.23
2018-12-12T07:58:48.607Z,100096.23
2018-12-12T08:01:16.831Z,100107.07
2018-12-12T08:03:45.510Z,100108.30
2018-12-12T08:06:13.799Z,100113.01
2018-12-12T08:08:41.953Z,100110.27
2018-12-12T08:11:10.089Z,100109.81
2018-12-12T08:13:38.240Z,100107.58
2018-12-12T08:16:07.153Z,100113.95
2018-12-12T08:18:35.294Z,100115.98
2018-12-12T08:21:03.427Z,100116.74
2018-12-12T08:23:32.222Z,100112.33
2018-12-12T08:26:00.499Z,100117.44
2018-12-12T08:28:28.700Z,100128.41
2018-12-12T08:30:57.662Z,100119.49
2018-12-12T08:33:25.868Z,100119.81
2018-12-12T08:35:54.032Z,100113.64
2018-12-12T08:38:22.213Z,100117.94
2018-12-12T08:40:50.391Z,100118.41
2018-12-12T08:43:18.629Z,100121.59
2018-12-12T08:45:46.840Z,100116.23
2018-12-12T08:48:15.001Z,100111.26
2018-12-12T08:50:43.204Z,100114.61
2018-12-12T08:53:11.467Z,100118.94
2018-12-12T08:55:39.748Z,100119.98
2018-12-12T08:58:08.693Z,100115.58
2018-12-12T09:00:36.887Z,100115.06
2018-12-12T09:03:05.172Z,100110.63
2018-12-12T09:05:34.029Z,100111.47
2018-12-12T09:08:02.918Z,100111.03
2018-12-12T09:10:31.132Z,100112.95
2018-12-12T09:12:59.844Z,100113.14
2018-12-12T09:15:27.995Z,100112.19
2018-12-12T09:17:56.149Z,100116.73
2018-12-12T09:20:24.365Z,100116.14
2018-12-12T09:22:52.506Z,100104.20
2018-12-12T09:25:20.676Z,100115.43
2018-12-12T09:27:48.821Z,100109.83
2018-12-12T09:30:17.024Z,100116.17
2018-12-12T09:32:45.211Z,100109.98
2018-12-12T09:35:13.854Z,100111.73
2018-12-12T09:37:42.047Z,100105.92
2018-12-12T09:40:10.334Z,100100.36
2018-12-12T09:42:38.544Z,100104.48
2018-12-12T09:45:06.814Z,100104.82
2018-12-12T09:47:35.059Z,100101.27
2018-12-12T09:50:03.497Z,100102.45
2018-12-12T09:52:31.711Z,100104.97
2018-12-12T09:54:59.874Z,100102.26
2018-12-12T09:57:28.067Z,100100.45
2018-12-12T09:59:56.227Z,100100.31
2018-12-12T10:02:24.982Z,100097.73
2018-12-12T10:04:53.275Z,100103.56
2018-12-12T10:07:21.466Z,100098.73
2018-12-12T10:09:50.744Z,100098.07
2018-12-12T10:12:18.940Z,100095.44
2018-12-12T10:14:47.223Z,100097.83
2018-12-12T10:17:15.681Z,100098.94
2018-12-12T10:19:43.811Z,100101.95
2018-12-12T10:22:12.036Z,100106.33
2018-12-12T10:24:42.236Z,100103.81
2018-12-12T10:27:10.442Z,100099.78
2018-12-12T10:29:38.707Z,100096.66
2018-12-12T10:32:06.996Z,100090.48
2018-12-12T10:34:35.175Z,100079.38
2018-12-12T10:37:03.711Z,100076.95
2018-12-12T10:39:31.917Z,100076.09
2018-12-12T10:42:00.099Z,100073.09
2018-12-12T10:44:31.271Z,100069.76
2018-12-12T10:46:59.472Z,100066.76
2018-12-12T10:49:27.605Z,100072.32
2018-12-12T10:51:55.866Z,100065.52
2018-12-12T10:54:24.039Z,100061.57
2018-12-12T10:56:52.366Z,100054.68
2018-12-12T10:59:20.491Z,100053.03
2018-12-12T11:01:48.655Z,100052.39
2018-12-12T11:04:18.655Z,100040.32
2018-12-12T11:06:46.947Z,100041.47
2018-12-12T11:09:15.491Z,100033.52
2018-12-12T11:11:43.691Z,100027.97
2018-12-12T11:14:11.873Z,100025.80
2018-12-12T11:16:40.052Z,100026.70
2018-12-12T11:19:08.323Z,100014.30
2018-12-12T11:21:36.871Z,100015.56
2018-12-12T11:24:05.093Z,100010.63
2018-12-12T11:26:34.171Z,100002.64
2018-12-12T11:29:02.340Z,99999.78
2018-12-12T11:31:30.631Z,99997.32
2018-12-12T11:33:58.756Z,99999.55
2018-12-12T11:36:26.936Z,99999.11
2018-12-12T11:38:55.139Z,99991.28
2018-12-12T11:41:23.417Z,99991.17
2018-12-12T11:43:51.720Z,99983.72
2018-12-12T11:46:19.868Z,99989.39
2018-12-12T11:48:47.988Z,99986.41
2018-12-12T11:51:16.174Z,99980.72
2018-12-12T11:53:44.307Z,99980.17
2018-12-12T11:56:12.456Z,99970.81
2018-12-12T11:58:40.793Z,99974.31
2018-12-12T12:01:09.109Z,99966.82
2018-12-12T12:03:37.281Z,99972.55
2018-12-12T12:06:06.855Z,99971.18
2018-12-12T12:08:35.072Z,99969.45
2018-12-12T12:11:03.347Z,99963.88
2018-12-12T12:13:32.911Z,99967.62
2018-12-12T12:16:01.132Z,99963.81
2018-12-12T12:18:29.267Z,99964.11
2018-12-12T12:20:57.493Z,99961.55
2018-12-12T12:23:25.638Z,99961.42
2018-12-12T12:25:53.814Z,99956.82
2018-12-12T12:28:26.241Z,99948.52
2018-12-12T12:30:54.375Z,99951.33
2018-12-12T12:33:22.529Z,99952.51
2018-12-12T12:35:50.825Z,99945.16
2018-12-12T12:38:19.285Z,99939.25
2018-12-12T12:40:47.467Z,99935.42
2018-12-12T12:43:16.930Z,99929.50
2018-12-12T12:45:45.127Z,99930.69
2018-12-12T12:48:13.351Z,99925.30
2018-12-12T12:50:42.418Z,99923.02
2018-12-12T12:53:10.570Z,99918.58
2018-12-12T12:55:38.764Z,99920.19
2018-12-12T12:58:08.168Z,99916.97
2018-12-12T13:00:36.330Z,99912.48
2018-12-12T13:03:04.502Z,99915.73
2018-12-12T13:05:32.687Z,99915.69
2018-12-12T13:08:00.859Z,99916.11
2018-12-12T13:10:29.240Z,99919.38
2018-12-12T13:12:57.788Z,99915.69
2018-12-12T13:15:26.373Z,99906.30
2018-12-12T13:17:55.658Z,99910.24
2018-12-12T13:20:23.778Z,99903.11
2018-12-12T13:22:52.041Z,99911.19
2018-12-12T13:25:20.226Z,99911.92
2018-12-12T13:27:48.368Z,99902.86
2018-12-12T13:30:16.556Z,99905.48
2018-12-12T13:32:45.930Z,99905.29
2018-12-12T13:35:14.161Z,99897.02
2018-12-12T13:37:42.330Z,99896.71
2018-12-12T13:40:10.474Z,99892.20
2018-12-12T13:42:38.749Z,99899.03
2018-12-12T13:45:08.027Z,99894.33
2018-12-12T13:47:36.229Z,99894.47
2018-12-12T13:50:04.621Z,99887.09
2018-12-12T13:52:33.871Z,99889.02
2018-12-12T13:55:02.093Z,99874.20
2018-12-12T13:57:30.255Z,99879.63
2018-12-12T13:59:59.110Z,99872.67
2018-12-12T14:02:27.413Z,99874.38
2018-12-12T14:04:56.478Z,99877.66
2018-12-12T14:07:24.705Z,99867.55
2018-12-12T14:09:52.860Z,99874.82
2018-12-12T14:12:21.089Z,99875.24
2018-12-12T14:14:49.349Z,99878.69
2018-12-12T14:17:17.686Z,99876.77
2018-12-12T14:19:45.962Z,99871.56
2018-12-12T14:22:14.828Z,99869.49
2018-12-12T14:24:43.131Z,99867.99
2018-12-12T14:27:11.403Z,99867.56
2018-12-12T14:29:39.761Z,99870.56
2018-12-12T14:32:40.655Z,99867.63
2018-12-12T14:35:14.394Z,99865.01
2018-12-12T14:37:55.848Z,99864.25
2018-12-12T14:40:24.062Z,99858.95
2018-12-12T14:42:52.219Z,99863.03
2018-12-12T14:45:20.443Z,99862.30
2018-12-12T14:47:49.820Z,99861.84
2018-12-12T14:50:17.945Z,99856.34
2018-12-12T14:52:46.093Z,99853.63
2018-12-12T14:55:14.839Z,99854.77
2018-12-12T14:57:42.984Z,99857.39
2018-12-12T15:00:11.205Z,99858.14
2018-12-12T15:02:39.776Z,99862.34
2018-12-12T15:05:08.016Z,99859.99
2018-12-12T15:07:36.195Z,99857.66
2018-12-12T15:10:05.734Z,99864.69
2018-12-12T15:12:33.875Z,99856.11
2018-12-12T15:15:02.110Z,99859.00
2018-12-12T15:17:30.312Z,99859.83
2018-12-12T15:19:58.500Z,99858.22
2018-12-12T15:22:27.008Z,99848.45
2018-12-12T15:24:55.137Z,99854.41
2018-12-12T15:27:23.278Z,99851.72
2018-12-12T15:29:51.926Z,99844.88
2018-12-12T15:32:20.099Z,99848.13
2018-12-12T15:34:48.276Z,99845.05
2018-12-12T15:37:16.684Z,99851.63
2018-12-12T15:39:44.899Z,99845.11
2018-12-12T15:42:13.035Z,99849.83
2018-12-12T15:44:41.569Z,99851.08
2018-12-12T15:47:09.790Z,99850.02
2018-12-12T15:49:38.019Z,99846.58
2018-12-12T15:52:06.196Z,99841.45
2018-12-12T15:54:34.304Z,99847.16
2018-12-12T15:57:02.539Z,99848.81
2018-12-12T15:59:30.674Z,99850.49
2018-12-12T16:01:58.813Z,99843.23
2018-12-12T16:04:27.087Z,99848.73
2018-12-12T16:06:55.220Z,99847.93
2018-12-12T16:09:23.437Z,99843.04
2018-12-12T16:11:51.639Z,99838.48
2018-12-12T16:14:19.785Z,99832.66
2018-12-12T16:16:47.953Z,99838.41
2018-12-12T16:19:16.158Z,99831.66
2018-12-12T16:21:44.278Z,99834.29
2018-12-12T16:24:12.495Z,99833.82
2018-12-12T16:26:40.931Z,99840.23
2018-12-12T16:29:09.142Z,99846.29
2018-12-12T16:31:37.716Z,99846.54
2018-12-12T16:34:06.032Z,99846.31
2018-12-12T16:36:34.161Z,99842.25
2018-12-12T16:39:02.295Z,99839.48
2018-12-12T16:41:31.401Z,99838.65
2018-12-12T16:43:59.561Z,99846.97
2018-12-12T16:46:27.691Z,99846.86
2018-12-12T16:48:56.003Z,99837.62
2018-12-12T16:51:24.225Z,99839.48
2018-12-12T16:53:52.421Z,99838.17
2018-12-12T16:56:20.577Z,99842.88
2018-12-12T16:58:48.857Z,99841.72
2018-12-12T17:01:17.709Z,99839.09
2018-12-12T17:03:45.823Z,99839.27
2018-12-12T17:06:13.978Z,99837.25
2018-12-12T17:08:42.190Z,99843.93
2018-12-12T17:11:10.329Z,99853.11
2018-12-12T17:13:38.493Z,99851.74
2018-12-12T17:16:06.772Z,99857.69
2018-12-12T17:18:35.099Z,99854.30
2018-12-12T17:21:03.261Z,99855.02
2018-12-12T17:23:32.019Z,99847.20
2018-12-12T17:26:00.512Z,99846.14
2018-12-12T17:28:29.622Z,99843.80
2018-12-12T17:30:58.883Z,99848.45
2018-12-12T17:33:27.086Z,99835.70
2018-12-12T17:35:55.313Z,99844.00
2018-12-12T17:38:23.558Z,99838.47
2018-12-12T17:40:51.711Z,99843.16
2018-12-12T17:43:20.538Z,99843.08
2018-12-12T17:45:49.147Z,99843.61
2018-12-12T17:48:17.378Z,99850.30
2018-12-12T17:50:45.653Z,99845.77
2018-12-12T17:53:14.492Z,99854.49
2018-12-12T17:55:42.806Z,99850.04
2018-12-12T17:58:11.215Z,99857.95
2018-12-12T18:00:39.715Z,99856.34
2018-12-12T18:03:07.970Z,99856.38
2018-12-12T18:05:36.207Z,99852.07
2018-12-12T18:08:04.762Z,99844.83
2018-12-12T18:10:32.973Z,99851.99
2018-12-12T18:13:01.155Z,99852.52
2018-12-12T18:15:29.464Z,99853.91
2018-12-12T18:17:57.627Z,99859.14
2018-12-12T18:20:26.154Z,99856.27
2018-12-12T18:22:54.355Z,99853.20
2018-12-12T18:25:22.625Z,99845.32
2018-12-12T18:27:50.814Z,99853.44
2018-12-12T18:30:19.594Z,99849.98
2018-12-12T18:32:48.898Z,99853.91
2018-12-12T18:35:21.815Z,99853.56
2018-12-12T18:37:47.733Z,99849.80
2018-12-12T18:40:16.117Z,99855.17
2018-12-12T18:42:44.631Z,99854.59
2018-12-12T18:45:13.366Z,99856.94
2018-12-12T18:47:41.529Z,99857.97
2018-12-12T18:50:10.589Z,99851.98
2018-12-12T18:52:38.893Z,99859.47
2018-12-12T18:55:07.146Z,99857.02
2018-12-12T18:57:35.501Z,99854.13
2018-12-12T19:00:03.897Z,99856.13
2018-12-12T19:02:32.105Z,99855.48
2018-12-12T19:05:00.358Z,99850.03
2018-12-12T19:07:28.529Z,99859.69
2018-12-12T19:09:56.690Z,99855.07
2018-12-12T19:12:25.513Z,99850.78
2018-12-12T19:15:03.265Z,99852.53
2018-12-12T19:17:31.531Z,99845.63
2018-12-12T19:19:59.706Z,99843.95
2018-12-12T19:22:27.857Z,99844.95
2018-12-12T19:24:56.440Z,99848.05
2018-12-12T19:27:25.010Z,99847.16
2018-12-12T19:29:53.263Z,99840.57
2018-12-12T19:32:21.410Z,99837.09
2018-12-12T19:34:50.032Z,99834.52
2018-12-12T19:37:19.147Z,99835.27
2018-12-12T19:39:47.436Z,99827.58
2018-12-12T19:42:15.613Z,99831.89
2018-12-12T19:44:43.847Z,99832.44
2018-12-12T19:47:12.213Z,99826.30
2018-12-12T19:49:40.378Z,99821.88
2018-12-12T19:52:08.670Z,99831.34
2018-12-12T19:54:36.970Z,99828.83
2018-12-12T19:57:05.142Z,99825.83
2018-12-12T19:59:33.896Z,99820.73
2018-12-12T20:02:03.719Z,99824.52
2018-12-12T20:04:32.056Z,99827.49
2018-12-12T20:07:00.753Z,99814.23
2018-12-12T20:09:29.991Z,99813.52
2018-12-12T20:11:58.199Z,99813.80
2018-12-12T20:14:26.473Z,99805.19
2018-12-12T20:16:55.390Z,99807.20
2018-12-12T20:19:23.576Z,99804.67
2018-12-12T20:21:51.840Z,99798.59
2018-12-12T20:24:21.172Z,99793.00
2018-12-12T20:26:49.892Z,99791.34
2018-12-12T20:29:22.479Z,99791.29
2018-12-12T20:31:53.017Z,99780.45
2018-12-12T20:34:21.268Z,99779.87
2018-12-12T20:36:51.173Z,99782.14
2018-12-12T20:39:21.723Z,99786.56
2018-12-12T20:41:50.188Z,99786.19
2018-12-12T20:44:18.356Z,99793.66
2018-12-12T20:46:46.584Z,99786.70
2018-12-12T20:49:14.787Z,99781.48
2018-12-12T20:51:42.968Z,99780.19
2018-12-12T20:54:15.034Z,99782.30
2018-12-12T20:56:44.187Z,99781.90
2018-12-12T20:59:12.830Z,99773.51
2018-12-12T21:01:41.189Z,99776.55
2018-12-12T21:04:09.390Z,99769.52
2018-12-12T21:06:37.553Z,99772.00
2018-12-12T21:09:07.961Z,99771.02
2018-12-12T21:11:36.249Z,99761.83
2018-12-12T21:14:04.440Z,99767.38
2018-12-12T21:16:32.764Z,99763.42
2018-12-12T21:19:01.106Z,99760.24
2018-12-12T21:21:29.295Z,99758.31
2018-12-12T21:23:57.507Z,99761.57
2018-12-12T21:26:26.387Z,99758.34
2018-12-12T21:28:54.562Z,99767.27
2018-12-12T21:31:22.748Z,99760.45
2018-12-12T21:33:51.235Z,99758.03
2018-12-12T21:36:19.413Z,99756.76
2018-12-12T21:38:48.569Z,99754.34
2018-12-12T21:41:16.789Z,99756.95
2018-12-12T21:43:45.046Z,99756.61
2018-12-12T21:46:13.242Z,99755.77
2018-12-12T21:48:41.441Z,99755.42
2018-12-12T21:51:09.611Z,99749.00
2018-12-12T21:53:37.791Z,99751.23
2018-12-12T21:56:06.038Z,99752.97
2018-12-12T21:58:34.238Z,99753.72
2018-12-12T22:01:02.465Z,99755.38
2018-12-12T22:03:30.638Z,99752.45
2018-12-12T22:05:58.985Z,99751.08
2018-12-12T22:08:27.286Z,99747.20
2018-12-12T22:10:55.931Z,99746.70
2018-12-12T22:13:24.090Z,99743.95
2018-12-12T22:15:52.410Z,99743.55
2018-12-12T22:18:20.595Z,99743.73
2018-12-12T22:20:48.745Z,99746.48
2018-12-12T22:23:17.080Z,99744.64
2018-12-12T22:25:45.256Z,99738.17
2018-12-12T22:28:13.480Z,99741.19
2018-12-12T22:30:42.851Z,99734.37
2018-12-12T22:33:11.030Z,99737.16
2018-12-12T22:35:39.212Z,99743.89
2018-12-12T22:38:07.522Z,99738.36
2018-12-12T22:40:36.170Z,99739.73
2018-12-12T22:43:04.325Z,99737.42
2018-12-12T22:45:32.907Z,99738.10
2018-12-12T22:48:01.408Z,99736.27
2018-12-12T22:50:29.576Z,99738.80
2018-12-12T22:52:58.358Z,99732.13
2018-12-12T22:55:26.563Z,99724.77
2018-12-12T22:57:54.735Z,99730.09
2018-12-12T23:00:28.401Z,99722.41
2018-12-12T23:02:56.603Z,99730.02
2018-12-12T23:05:24.755Z,99726.60
2018-12-12T23:07:52.923Z,99723.06
2018-12-12T23:10:21.059Z,99719.19
2018-12-12T23:12:49.191Z,99714.00
2018-12-12T23:15:17.730Z,99720.05
2018-12-12T23:17:45.940Z,99713.97
2018-12-12T23:20:14.111Z,99712.27
2018-12-12T23:22:42.299Z,99712.27
2018-12-12T23:25:10.463Z,99712.91
2018-12-12T23:27:38.639Z,99716.51
2018-12-12T23:30:07.953Z,99700.44
2018-12-12T23:32:36.083Z,99710.69
2018-12-12T23:35:04.465Z,99713.57
2018-12-12T23:37:32.659Z,99705.02
2018-12-12T23:40:01.052Z,99702.73
2018-12-12T23:42:29.715Z,99698.45
2018-12-12T23:44:57.983Z,99694.55
2018-12-12T23:47:26.129Z,99688.44
2018-12-12T23:49:54.340Z,99687.21
2018-12-12T23:52:22.526Z,99679.78
2018-12-12T23:54:50.966Z,99679.49
2018-12-12T23:57:19.167Z,99676.56
2018-12-12T23:59:47.449Z,99672.61
